Time;durP1;ratioP1;P1;durP2;ratioP2;P2;SDS_P1;SDS_P2;PMS_P1;PMS_P2;Temp;Humidity;BMP_temperature;BMP_pressure;BME280_temperature;BME280_humidity;BME280_pressure;Samples;Min_cycle;Max_cycle;Signal;HPM_P1;HPM_P2
2022/11/25 00:02:18;;;;;;;11.07;3.27;;;13.60;92.90;;;;;;4990375;28;20300;-92
2022/11/25 00:04:47;;;;;;;7.60;3.10;;;13.60;92.70;;;;;;4979058;28;20229;-91
2022/11/25 00:07:14;;;;;;;10.43;2.87;;;13.50;92.60;;;;;;4975051;28;20200;-93
2022/11/25 00:09:41;;;;;;;15.40;5.37;;;13.50;92.50;;;;;;4975885;28;20721;-92
2022/11/25 00:12:16;;;;;;;10.97;3.40;;;13.50;92.40;;;;;;4978552;28;20556;-94
2022/11/25 00:14:44;;;;;;;10.50;3.63;;;13.50;92.50;;;;;;4992026;28;20210;-92
2022/11/25 00:17:12;;;;;;;12.67;3.43;;;13.50;92.50;;;;;;4993563;28;20639;-93
2022/11/25 00:19:41;;;;;;;14.10;3.90;;;13.40;92.80;;;;;;4992385;28;20279;-93
2022/11/25 00:22:10;;;;;;;11.60;3.00;;;13.40;92.50;;;;;;4991171;28;20207;-93
2022/11/25 00:24:39;;;;;;;13.20;3.73;;;13.30;92.50;;;;;;4992100;28;20335;-93
2022/11/25 00:27:12;;;;;;;10.90;2.97;;;13.30;92.90;;;;;;4991026;28;20704;-93
2022/11/25 00:29:39;;;;;;;10.47;2.63;;;13.30;92.60;;;;;;4991575;28;20202;-93
2022/11/25 00:32:07;;;;;;;11.00;3.00;;;13.30;92.50;;;;;;4990691;28;20226;-93
2022/11/25 00:34:40;;;;;;;9.53;2.60;;;13.20;92.60;;;;;;4991136;28;20211;-94
2022/11/25 00:37:07;;;;;;;10.00;3.23;;;13.20;92.70;;;;;;4990506;28;20216;-92
2022/11/25 00:39:40;;;;;;;10.50;3.37;;;13.20;92.50;;;;;;4991235;28;20705;-94
2022/11/25 00:44:58;;;;;;;10.23;2.37;;;13.20;92.60;;;;;;4992002;28;20301;-94
2022/11/25 00:47:25;;;;;;;9.70;2.93;;;13.10;92.50;;;;;;4989003;28;21099;-94
2022/11/25 00:49:54;;;;;;;11.63;3.40;;;13.10;92.50;;;;;;4994399;28;20208;-93
2022/11/25 00:52:23;;;;;;;11.10;3.13;;;13.10;92.50;;;;;;5008144;28;20215;-94
2022/11/25 00:54:54;;;;;;;9.73;2.63;;;13.10;92.50;;;;;;5015012;28;20195;-94
2022/11/25 00:57:30;;;;;;;7.83;2.50;;;13.10;92.50;;;;;;5001639;28;20782;-94
2022/11/25 01:00:02;;;;;;;5.80;2.00;;;13.00;92.50;;;;;;4994181;28;20213;-93
2022/11/25 01:02:30;;;;;;;7.40;2.57;;;13.00;92.40;;;;;;4994091;28;20208;-94
2022/11/25 01:04:58;;;;;;;8.03;2.93;;;13.00;92.40;;;;;;4991548;28;20294;-93
2022/11/25 01:07:28;;;;;;;11.70;3.63;;;13.00;92.40;;;;;;4991095;28;22170;-94
2022/11/25 01:09:57;;;;;;;12.13;3.87;;;13.00;92.40;;;;;;4992584;28;20260;-94
2022/11/25 01:12:32;;;;;;;9.33;3.43;;;12.90;92.40;;;;;;4988826;28;20753;-94
2022/11/25 01:14:59;;;;;;;10.90;3.33;;;12.90;92.50;;;;;;4992316;28;20648;-92
2022/11/25 01:17:29;;;;;;;9.33;2.77;;;12.90;92.50;;;;;;4993234;28;21005;-94
2022/11/25 01:19:57;;;;;;;8.33;2.93;;;12.90;92.50;;;;;;4992999;28;20630;-94
2022/11/25 01:22:26;;;;;;;9.37;3.13;;;12.90;92.60;;;;;;4992529;28;20568;-93
2022/11/25 01:24:56;;;;;;;9.40;2.90;;;12.90;92.60;;;;;;4992500;28;20646;-94
2022/11/25 01:27:25;;;;;;;10.27;3.93;;;12.80;92.50;;;;;;4993410;28;20272;-94
2022/11/25 01:29:58;;;;;;;8.83;2.83;;;12.90;92.50;;;;;;4992750;28;20214;-93
2022/11/25 01:32:26;;;;;;;9.03;3.30;;;12.80;92.60;;;;;;4992258;28;20230;-94
2022/11/25 01:35:05;;;;;;;9.87;3.43;;;12.80;92.60;;;;;;4992534;28;20227;-94
2022/11/25 01:37:34;;;;;;;10.50;4.10;;;12.80;92.60;;;;;;4973290;28;20210;-92
2022/11/25 01:40:01;;;;;;;9.73;3.50;;;12.80;92.50;;;;;;4973355;28;20199;-94
2022/11/25 01:42:31;;;;;;;10.17;3.53;;;12.80;92.50;;;;;;4972959;28;20227;-94
2022/11/25 01:45:34;;;;;;;7.67;3.00;;;12.80;92.60;;;;;;4973655;28;20231;-93
2022/11/25 01:48:10;;;;;;;10.13;3.80;;;12.70;92.70;;;;;;4990518;28;20276;-93
2022/11/25 01:50:45;;;;;;;8.80;3.40;;;12.70;92.50;;;;;;5013710;28;20194;-95
2022/11/25 01:53:16;;;;;;;6.47;2.70;;;12.70;92.60;;;;;;5010550;28;20268;-95
2022/11/25 01:55:54;;;;;;;6.50;2.73;;;12.70;92.50;;;;;;4998636;28;20214;-94
2022/11/25 01:58:28;;;;;;;8.40;3.17;;;12.70;92.60;;;;;;4996573;28;20207;-94
2022/11/25 02:00:58;;;;;;;6.57;2.57;;;12.70;92.50;;;;;;4996994;28;20217;-94
2022/11/25 02:03:30;;;;;;;9.30;3.50;;;12.70;92.60;;;;;;4994667;28;20210;-95
2022/11/25 02:06:08;;;;;;;10.83;3.40;;;12.60;92.50;;;;;;4996799;28;20206;-95
2022/11/25 02:08:35;;;;;;;7.83;3.13;;;12.60;92.60;;;;;;4995671;28;20194;-95
2022/11/25 02:11:06;;;;;;;8.03;3.00;;;12.60;92.50;;;;;;4993260;28;20210;-94
2022/11/25 02:13:37;;;;;;;6.20;2.70;;;12.60;92.70;;;;;;4988125;28;20206;-93
2022/11/25 02:16:06;;;;;;;9.70;3.13;;;12.50;92.70;;;;;;4994985;28;20235;-94
2022/11/25 02:18:35;;;;;;;16.67;4.93;;;12.50;92.70;;;;;;4991205;28;20206;-94
2022/11/25 02:21:06;;;;;;;8.80;3.00;;;12.50;92.70;;;;;;4993462;28;20264;-94
2022/11/25 02:23:40;;;;;;;7.20;2.70;;;12.50;92.80;;;;;;4994718;28;20202;-94
2022/11/25 02:26:09;;;;;;;7.23;2.70;;;12.50;92.90;;;;;;4993390;28;20216;-95
2022/11/25 02:28:38;;;;;;;11.17;3.87;;;12.50;92.90;;;;;;4992769;28;20374;-95
2022/11/25 02:31:08;;;;;;;8.70;3.07;;;12.50;92.80;;;;;;4992808;28;20288;-93
2022/11/25 02:33:35;;;;;;;9.77;3.63;;;12.50;92.90;;;;;;4998873;28;20640;-95
2022/11/25 02:36:05;;;;;;;6.73;2.60;;;12.50;92.80;;;;;;4986666;28;20215;-93
2022/11/25 02:38:39;;;;;;;9.10;2.90;;;12.50;92.80;;;;;;4993690;28;20353;-94
2022/11/25 02:41:14;;;;;;;9.40;2.47;;;12.50;92.80;;;;;;5001148;28;21043;-94
2022/11/25 02:43:43;;;;;;;10.57;3.47;;;12.50;93.10;;;;;;4997238;28;20215;-93
2022/11/25 02:46:12;;;;;;;13.03;3.97;;;12.40;92.70;;;;;;5003049;28;20200;-94
2022/11/25 02:48:43;;;;;;;13.10;3.97;;;12.50;92.80;;;;;;5015598;28;20199;-94
2022/11/25 02:51:15;;;;;;;7.03;2.17;;;12.50;92.80;;;;;;5011063;28;20195;-94
2022/11/25 02:53:43;;;;;;;7.10;2.57;;;12.50;92.80;;;;;;5002752;28;20542;-94
2022/11/25 02:56:20;;;;;;;9.20;2.53;;;12.40;92.70;;;;;;5000612;28;20632;-94
2022/11/25 02:58:48;;;;;;;9.83;2.47;;;12.40;92.80;;;;;;5002247;28;20654;-94
2022/11/25 03:01:19;;;;;;;10.97;3.50;;;12.40;92.70;;;;;;5004373;28;20214;-94
2022/11/25 03:03:47;;;;;;;14.13;4.27;;;12.50;92.80;;;;;;5007405;28;20260;-93
2022/11/25 03:06:15;;;;;;;6.17;2.00;;;12.40;92.70;;;;;;4983213;28;20558;-94
2022/11/25 03:08:43;;;;;;;9.07;2.87;;;12.40;92.80;;;;;;4999481;28;20206;-95
2022/11/25 03:11:15;;;;;;;7.73;2.73;;;12.40;92.80;;;;;;4999434;28;20218;-94
2022/11/25 03:13:44;;;;;;;7.73;2.57;;;12.40;93.00;;;;;;4997847;28;20605;-94
2022/11/25 03:16:16;;;;;;;7.13;2.60;;;12.40;92.90;;;;;;4998412;28;20202;-95
2022/11/25 03:18:45;;;;;;;15.77;4.60;;;12.40;92.90;;;;;;4996679;28;20217;-94
2022/11/25 03:21:14;;;;;;;10.83;3.07;;;12.40;92.70;;;;;;4996831;28;20199;-94
2022/11/25 03:23:41;;;;;;;8.30;2.87;;;12.40;92.60;;;;;;4998475;28;20322;-96
2022/11/25 03:26:10;;;;;;;5.47;1.90;;;12.40;92.60;;;;;;4985829;28;20254;-95
2022/11/25 03:28:42;;;;;;;9.57;2.67;;;12.40;92.60;;;;;;5000373;28;20207;-95
2022/11/25 03:31:12;;;;;;;8.80;2.60;;;12.40;92.60;;;;;;4998958;28;20229;-95
2022/11/25 03:33:47;;;;;;;5.47;2.13;;;12.50;92.70;;;;;;4999021;28;20211;-96
2022/11/25 03:36:19;;;;;;;7.77;2.40;;;12.50;92.70;;;;;;4998964;28;20217;-96
2022/11/25 03:38:53;;;;;;;8.33;2.90;;;12.50;92.60;;;;;;4998394;28;20205;-96
2022/11/25 03:41:20;;;;;;;7.33;2.40;;;12.50;92.60;;;;;;5000801;28;20888;-94
2022/11/25 03:43:48;;;;;;;8.33;2.53;;;12.50;92.50;;;;;;5008734;28;20229;-95
2022/11/25 03:46:17;;;;;;;9.37;1.80;;;12.50;92.40;;;;;;5016357;28;20186;-94
2022/11/25 03:48:48;;;;;;;9.13;2.70;;;12.50;92.30;;;;;;5004079;28;20206;-94
2022/11/25 03:51:17;;;;;;;7.67;1.93;;;12.50;92.20;;;;;;4998731;28;20218;-94
2022/11/25 03:53:44;;;;;;;8.50;2.73;;;12.50;92.00;;;;;;4999706;28;20237;-96
2022/11/25 03:56:16;;;;;;;4.90;1.60;;;12.50;91.90;;;;;;5000032;28;20238;-95
2022/11/25 03:58:46;;;;;;;11.20;3.10;;;12.50;91.90;;;;;;5001192;28;20206;-93
2022/11/25 04:01:15;;;;;;;7.50;2.03;;;12.50;91.90;;;;;;4997374;28;20202;-95
2022/11/25 04:03:43;;;;;;;12.43;3.63;;;12.50;92.10;;;;;;4995795;28;20283;-95
2022/11/25 04:06:11;;;;;;;10.33;3.30;;;12.50;91.70;;;;;;4999774;28;20237;-92
2022/11/25 04:08:41;;;;;;;9.03;2.90;;;12.50;91.90;;;;;;5000437;28;20202;-92
2022/11/25 04:11:10;;;;;;;9.27;2.90;;;12.50;91.80;;;;;;5000132;28;20282;-95
2022/11/25 04:13:42;;;;;;;10.07;2.70;;;12.40;91.90;;;;;;4998610;28;20217;-94
2022/11/25 04:16:23;;;;;;;8.30;2.73;;;12.50;92.00;;;;;;4997677;28;20218;-93
2022/11/25 04:19:07;;;;;;;9.90;3.17;;;12.40;92.00;;;;;;4995664;28;20218;-95
2022/11/25 04:21:37;;;;;;;6.20;1.93;;;12.40;92.10;;;;;;4998019;28;20899;-94
2022/11/25 04:24:11;;;;;;;8.23;2.63;;;12.40;92.10;;;;;;4994435;28;20235;-94
2022/11/25 04:26:47;;;;;;;17.30;3.83;;;12.40;92.10;;;;;;4996811;28;20210;-93
2022/11/25 04:29:15;;;;;;;6.87;2.20;;;12.40;92.20;;;;;;4996932;28;20203;-95
2022/11/25 04:31:44;;;;;;;9.17;2.77;;;12.40;92.20;;;;;;4992570;28;20618;-95
2022/11/25 04:34:13;;;;;;;7.77;1.97;;;12.40;92.20;;;;;;4986547;28;20204;-95
2022/11/25 04:36:46;;;;;;;10.47;2.80;;;12.40;92.00;;;;;;4984876;28;20210;-95
2022/11/25 04:39:15;;;;;;;9.97;2.90;;;12.40;91.90;;;;;;4991030;28;20195;-93
2022/11/25 04:41:42;;;;;;;15.33;4.10;;;12.40;91.60;;;;;;4995811;28;20222;-95
2022/11/25 04:44:14;;;;;;;6.67;2.17;;;12.40;91.60;;;;;;4993660;28;20212;-94
2022/11/25 04:46:44;;;;;;;6.00;2.03;;;12.30;91.50;;;;;;4994792;28;20237;-94
2022/11/25 04:49:12;;;;;;;8.27;2.30;;;12.30;91.60;;;;;;4992518;28;20210;-94
2022/11/25 04:51:41;;;;;;;7.37;2.20;;;12.30;91.50;;;;;;4992812;28;20238;-94
2022/11/25 04:54:10;;;;;;;6.97;2.33;;;12.30;91.40;;;;;;4987461;28;20211;-94
2022/11/25 04:56:39;;;;;;;9.10;2.57;;;12.20;91.30;;;;;;4990094;28;20685;-94
2022/11/25 05:01:56;;;;;;;7.50;2.13;;;12.20;91.50;;;;;;4999658;28;20208;-94
2022/11/25 05:04:33;;;;;;;7.40;1.97;;;12.20;91.40;;;;;;4993186;28;20690;-95
2022/11/25 05:07:04;;;;;;;9.20;2.37;;;12.10;91.30;;;;;;4995660;28;21010;-96
2022/11/25 05:09:32;;;;;;;8.80;2.67;;;12.10;91.40;;;;;;4991324;28;20201;-94
2022/11/25 05:11:59;;;;;;;8.73;2.57;;;12.10;91.30;;;;;;4990787;28;20213;-96
2022/11/25 05:14:31;;;;;;;7.87;2.57;;;12.00;91.30;;;;;;4974523;28;20731;-95
2022/11/25 05:17:00;;;;;;;8.63;2.83;;;12.00;91.20;;;;;;4991705;28;20647;-95
2022/11/25 05:19:35;;;;;;;9.43;2.57;;;12.00;91.30;;;;;;4982720;28;20511;-96
2022/11/25 05:22:13;;;;;;;8.93;2.80;;;11.90;91.20;;;;;;4994456;28;20669;-95
2022/11/25 05:24:45;;;;;;;9.70;2.93;;;11.90;91.20;;;;;;4993305;28;20286;-96
2022/11/25 05:27:13;;;;;;;8.33;2.70;;;11.90;91.10;;;;;;4995804;28;20217;-95
2022/11/25 05:29:44;;;;;;;7.63;2.27;;;11.90;91.10;;;;;;4996330;28;21026;-94
2022/11/25 05:32:12;;;;;;;8.77;2.53;;;11.90;91.10;;;;;;4995261;28;20252;-95
2022/11/25 05:34:42;;;;;;;9.57;2.67;;;11.80;91.10;;;;;;4996163;28;20202;-95
2022/11/25 05:37:13;;;;;;;9.93;2.63;;;11.80;91.10;;;;;;4995295;28;20651;-95
2022/11/25 05:39:41;;;;;;;13.53;3.33;;;11.80;91.20;;;;;;4998032;28;20202;-96
2022/11/25 05:42:12;;;;;;;8.23;2.73;;;11.80;91.20;;;;;;5002762;28;20617;-94
2022/11/25 05:44:47;;;;;;;6.77;2.27;;;11.70;91.20;;;;;;5003250;28;20210;-94
2022/11/25 05:47:22;;;;;;;11.47;3.50;;;11.70;91.20;;;;;;4999169;28;20206;-95
2022/11/25 05:49:54;;;;;;;8.03;3.00;;;11.70;91.30;;;;;;5003478;28;20217;-95
2022/11/25 05:52:25;;;;;;;10.53;3.10;;;11.70;91.40;;;;;;4998536;28;20229;-95
2022/11/25 05:54:52;;;;;;;13.17;3.30;;;11.60;91.40;;;;;;5002179;28;20247;-95
2022/11/25 05:57:27;;;;;;;9.87;3.23;;;11.60;91.40;;;;;;5001173;28;20562;-95
2022/11/25 05:59:55;;;;;;;10.93;3.27;;;11.60;91.50;;;;;;4999416;28;20205;-93
2022/11/25 06:02:22;;;;;;;9.97;2.93;;;11.60;91.60;;;;;;4990275;28;20879;-95
2022/11/25 06:04:54;;;;;;;8.47;2.60;;;11.60;91.70;;;;;;4999059;28;20234;-96
2022/11/25 06:07:44;;;;;;;;;;;;;;;;;;;;;
2022/11/25 06:10:15;;;;;;;12.60;3.80;;;11.50;91.90;;;;;;4980956;28;20202;-95
2022/11/25 06:16:38;;;;;;;9.93;3.00;;;11.50;92.20;;;;;;5178163;22;20329;-96
2022/11/25 06:19:05;;;;;;;8.73;2.97;;;11.50;92.50;;;;;;5020380;28;20217;-95
2022/11/25 06:21:34;;;;;;;11.33;3.03;;;11.50;92.60;;;;;;5023864;28;20202;-96
2022/11/25 06:24:08;;;;;;;10.00;2.97;;;11.50;92.90;;;;;;5018653;28;20206;-96
2022/11/25 06:26:40;;;;;;;10.30;2.77;;;11.50;93.00;;;;;;5019609;28;20315;-95
2022/11/25 06:29:14;;;;;;;9.40;2.93;;;11.50;93.10;;;;;;5028972;28;20259;-95
2022/11/25 06:31:48;;;;;;;7.87;2.77;;;11.50;93.30;;;;;;5025056;28;20300;-96
2022/11/25 06:34:25;;;;;;;11.90;3.93;;;11.60;93.50;;;;;;5022751;28;20646;-96
2022/11/25 06:37:05;;;;;;;13.63;4.30;;;11.50;93.70;;;;;;5025017;28;20299;-96
2022/11/25 06:39:49;;;;;;;10.80;2.93;;;11.60;94.00;;;;;;5027128;28;20202;-96
2022/11/25 06:42:18;;;;;;;10.03;3.60;;;11.50;93.80;;;;;;5028883;28;20687;-96
2022/11/25 06:44:56;;;;;;;11.47;3.50;;;11.60;93.70;;;;;;5033501;28;20209;-96
2022/11/25 06:47:58;;;;;;;;;;;;;;;;;;;;;
2022/11/25 06:50:32;;;;;;;7.40;2.43;;;11.60;94.00;;;;;;4996713;28;20243;-96
2022/11/25 06:53:02;;;;;;;8.50;3.30;;;11.70;93.80;;;;;;5027775;28;20197;-95
2022/11/25 06:59:30;;;;;;;15.70;4.60;;;11.70;94.00;;;;;;4942299;29;20691;-96
2022/11/25 07:02:03;;;;;;;13.43;3.93;;;11.70;93.70;;;;;;4989869;28;20210;-95
2022/11/25 07:04:31;;;;;;;10.20;2.40;;;11.70;93.70;;;;;;5013202;28;20250;-96
2022/11/25 07:06:59;;;;;;;13.17;3.80;;;11.70;93.60;;;;;;5026697;28;20221;-96
2022/11/25 07:09:35;;;;;;;11.13;3.13;;;11.70;93.50;;;;;;5022488;28;20281;-96
2022/11/25 07:25:35;;;;;;;12.53;3.77;;;11.80;93.50;;;;;;4880021;29;20249;-95
2022/11/25 07:28:06;;;;;;;10.63;3.37;;;11.70;93.40;;;;;;5010499;28;20216;-96
2022/11/25 07:30:36;;;;;;;14.70;4.43;;;11.70;93.40;;;;;;5007708;28;20206;-96
2022/11/25 07:33:07;;;;;;;14.77;4.03;;;11.70;93.40;;;;;;5012827;28;20538;-95
2022/11/25 07:35:37;;;;;;;11.83;3.97;;;11.70;93.40;;;;;;5013673;28;20217;-96
2022/11/25 07:38:06;;;;;;;12.73;4.03;;;11.70;93.40;;;;;;5028489;28;20194;-94
2022/11/25 07:40:35;;;;;;;10.57;3.30;;;11.70;93.40;;;;;;5032847;28;20213;-96
2022/11/25 07:43:04;;;;;;;13.53;4.33;;;11.80;93.40;;;;;;5034858;28;20185;-95
2022/11/25 07:45:31;;;;;;;11.50;3.57;;;11.80;93.30;;;;;;5032892;28;20225;-95
2022/11/25 07:48:02;;;;;;;17.53;5.13;;;11.80;93.20;;;;;;5031112;28;20255;-95
2022/11/25 07:50:29;;;;;;;14.70;3.93;;;11.70;93.30;;;;;;5033591;28;20205;-95
2022/11/25 07:52:57;;;;;;;10.77;3.50;;;11.80;93.20;;;;;;5033558;28;20200;-95
2022/11/25 07:55:36;;;;;;;12.33;2.80;;;11.80;93.20;;;;;;5039234;28;20208;-95
2022/11/25 07:58:23;;;;;;;13.30;4.23;;;11.80;93.20;;;;;;5046381;28;20208;-95
2022/11/25 08:00:50;;;;;;;8.50;2.87;;;11.80;93.10;;;;;;5041327;28;21007;-95
2022/11/25 08:03:18;;;;;;;9.60;3.07;;;11.70;92.90;;;;;;5019028;28;20478;-96
2022/11/25 08:05:45;;;;;;;9.23;2.27;;;11.80;92.90;;;;;;5025523;28;20677;-95
2022/11/25 08:08:13;;;;;;;11.67;2.87;;;11.70;92.90;;;;;;5015045;28;20209;-95
2022/11/25 08:10:40;;;;;;;12.20;3.37;;;11.70;92.80;;;;;;5023655;28;20223;-94
2022/11/25 08:13:17;;;;;;;8.60;3.07;;;11.70;92.90;;;;;;5021300;28;20229;-95
2022/11/25 08:15:54;;;;;;;8.67;2.97;;;11.70;93.00;;;;;;5019991;28;20209;-95
2022/11/25 08:18:29;;;;;;;9.30;3.13;;;11.70;93.20;;;;;;5016297;28;20263;-95
2022/11/25 08:21:04;;;;;;;9.20;3.13;;;11.70;93.20;;;;;;5023015;28;20285;-95
2022/11/25 08:23:32;;;;;;;4.03;1.97;;;11.70;93.20;;;;;;5015668;28;20209;-94
2022/11/25 08:26:03;;;;;;;10.00;3.33;;;11.70;93.30;;;;;;5015690;28;20225;-95
2022/11/25 08:28:31;;;;;;;7.47;2.87;;;11.70;93.40;;;;;;5023271;28;20206;-95
2022/11/25 08:31:04;;;;;;;12.93;3.87;;;11.70;93.40;;;;;;5024057;28;20201;-95
2022/11/25 08:33:34;;;;;;;8.93;2.60;;;11.80;93.80;;;;;;5015253;28;20205;-94
2022/11/25 08:36:08;;;;;;;12.70;3.83;;;11.80;93.40;;;;;;5013739;28;20221;-95
2022/11/25 08:38:39;;;;;;;8.40;2.90;;;11.70;93.40;;;;;;5014674;28;20208;-94
2022/11/25 08:41:12;;;;;;;7.63;2.73;;;11.80;93.40;;;;;;5015245;28;20229;-94
2022/11/25 08:43:40;;;;;;;8.93;3.10;;;11.80;93.40;;;;;;5016399;28;20209;-93
2022/11/25 08:46:12;;;;;;;8.90;3.10;;;11.80;93.40;;;;;;4998968;28;20234;-93
2022/11/25 08:48:42;;;;;;;10.57;3.10;;;11.80;93.50;;;;;;4995934;28;20615;-96
2022/11/25 08:51:20;;;;;;;17.23;5.00;;;11.80;93.50;;;;;;5010950;28;20194;-94
2022/11/25 08:53:51;;;;;;;9.53;3.80;;;11.80;93.70;;;;;;5012572;28;20567;-94
2022/11/25 08:56:21;;;;;;;9.73;3.50;;;11.80;93.70;;;;;;5011929;28;20628;-94
2022/11/25 08:58:52;;;;;;;11.13;3.77;;;11.80;93.70;;;;;;5015400;28;20204;-93
2022/11/25 09:01:23;;;;;;;14.20;4.47;;;11.80;93.80;;;;;;5015965;28;20336;-94
2022/11/25 09:03:55;;;;;;;11.80;4.00;;;11.90;93.80;;;;;;5020409;28;20212;-93
2022/11/25 09:06:30;;;;;;;15.93;4.47;;;11.90;93.80;;;;;;5021131;28;20340;-95
2022/11/25 09:09:00;;;;;;;10.93;3.77;;;11.90;93.90;;;;;;5019939;28;20205;-93
2022/11/25 09:11:41;;;;;;;11.73;4.10;;;11.90;93.80;;;;;;5014484;28;20202;-94
2022/11/25 09:14:08;;;;;;;13.87;3.37;;;11.90;93.80;;;;;;5018038;28;20300;-94
2022/11/25 09:16:39;;;;;;;12.60;4.37;;;12.00;93.80;;;;;;5026858;28;20209;-95
2022/11/25 09:19:08;;;;;;;15.47;4.63;;;12.00;94.00;;;;;;5029490;28;20204;-95
2022/11/25 09:21:39;;;;;;;13.67;4.63;;;12.00;93.90;;;;;;5021984;28;20206;-95
2022/11/25 09:24:12;;;;;;;11.47;3.43;;;12.00;94.00;;;;;;5023580;28;20207;-93
2022/11/25 09:26:41;;;;;;;11.17;3.77;;;12.10;94.10;;;;;;5022423;28;20225;-94
2022/11/25 09:29:10;;;;;;;9.70;3.60;;;12.10;94.00;;;;;;5005892;28;20320;-94
2022/11/25 09:31:39;;;;;;;8.60;3.47;;;12.10;94.10;;;;;;5014300;28;20206;-95
2022/11/25 09:34:08;;;;;;;12.17;4.13;;;12.20;94.10;;;;;;5018845;28;20286;-94
2022/11/25 09:36:38;;;;;;;9.37;3.33;;;12.20;94.30;;;;;;5008234;28;20278;-94
2022/11/25 09:39:05;;;;;;;11.87;4.03;;;12.20;94.00;;;;;;4998512;28;20232;-95
2022/11/25 09:47:45;;;;;;;8.50;3.43;;;12.40;94.00;;;;;;4998582;28;20306;-94
2022/11/25 09:50:28;;;;;;;11.57;4.07;;;12.40;93.80;;;;;;5001836;28;20285;-96
2022/11/25 09:53:09;;;;;;;9.13;3.13;;;12.50;93.90;;;;;;5019137;28;20205;-96
2022/11/25 09:55:45;;;;;;;9.63;2.87;;;12.50;93.90;;;;;;5019593;28;20207;-96
2022/11/25 09:58:27;;;;;;;13.33;3.27;;;12.50;93.70;;;;;;5018576;28;20205;-95
2022/11/25 10:01:14;;;;;;;15.63;4.30;;;12.60;93.80;;;;;;5018221;28;20662;-96
2022/11/25 10:04:10;;;;;;;10.77;3.10;;;12.60;93.70;;;;;;5017720;28;20205;-96
2022/11/25 10:06:51;;;;;;;13.53;4.20;;;12.60;93.60;;;;;;5018353;28;20247;-96
2022/11/25 10:09:39;;;;;;;12.83;3.33;;;12.70;93.70;;;;;;5002777;28;20194;-96
2022/11/25 10:12:27;;;;;;;10.13;3.50;;;12.70;93.60;;;;;;5021351;28;20230;-96
2022/11/25 10:15:08;;;;;;;15.03;4.33;;;12.70;93.60;;;;;;5031402;28;20214;-96
2022/11/25 10:18:05;;;;;;;18.73;3.53;;;12.80;93.50;;;;;;5029299;28;20258;-96
2022/11/25 10:24:13;;;;;;;24.73;7.70;;;12.90;93.40;;;;;;6004000;22;20196;-96
2022/11/25 10:49:23;;;;;;;17.10;4.30;;;13.30;93.10;;;;;;5419968;22;20245;-96
2022/11/25 10:51:52;;;;;;;8.07;3.00;;;13.40;93.20;;;;;;5038154;28;20213;-96
2022/11/25 10:54:39;;;;;;;15.97;3.73;;;13.50;93.00;;;;;;5040922;28;20213;-96
2022/11/25 10:57:41;;;;;;;13.17;2.97;;;13.50;92.90;;;;;;5039156;28;20203;-96
2022/11/25 11:03:24;;;;;;;9.77;2.93;;;13.60;92.50;;;;;;5034223;28;20209;-96
2022/11/25 11:19:22;;;;;;;;;;;;;;;;;;;;;
2022/11/25 11:22:19;;;;;;;19.27;4.30;;;14.30;93.30;;;;;;5018728;28;20198;-96
2022/11/25 11:29:20;;;;;;;;;;;;;;;;;;;;;
2022/11/25 11:48:34;;;;;;;17.50;3.70;;;16.00;91.40;;;;;;4829100;29;20214;-96
2022/11/25 11:51:25;;;;;;;15.03;4.07;;;16.20;91.60;;;;;;4933144;29;20213;-96
2022/11/25 11:54:09;;;;;;;13.53;4.60;;;16.30;90.40;;;;;;4966570;28;20218;-94
2022/11/25 11:56:56;;;;;;;13.57;2.80;;;16.50;88.50;;;;;;4974239;28;20209;-96
2022/11/25 11:59:58;;;;;;;12.10;3.67;;;16.60;87.90;;;;;;4995349;28;20231;-96
2022/11/25 12:02:52;;;;;;;12.23;3.07;;;16.80;87.80;;;;;;4998872;28;20609;-95
2022/11/25 12:05:28;;;;;;;15.60;4.10;;;16.90;87.30;;;;;;4997625;28;20206;-96
2022/11/25 12:08:17;;;;;;;15.17;3.50;;;17.00;86.70;;;;;;5008141;28;20234;-96
2022/11/25 12:10:54;;;;;;;18.57;5.30;;;17.20;84.90;;;;;;5008805;28;20371;-96
2022/11/25 12:13:38;;;;;;;14.60;4.20;;;17.30;87.60;;;;;;5006657;28;20209;-96
2022/11/25 12:16:15;;;;;;;14.23;3.50;;;17.40;85.10;;;;;;5004790;28;20204;-96
2022/11/25 12:18:58;;;;;;;16.20;5.23;;;17.50;83.70;;;;;;4996643;28;20212;-96
2022/11/25 12:21:39;;;;;;;15.70;5.03;;;17.60;83.50;;;;;;5019522;28;20238;-95
2022/11/25 12:24:16;;;;;;;21.87;6.43;;;17.70;82.90;;;;;;5023336;28;20208;-95
2022/11/25 12:26:57;;;;;;;17.53;5.70;;;17.80;85.50;;;;;;5013075;28;20233;-96
2022/11/25 12:29:36;;;;;;;13.40;3.80;;;17.90;83.50;;;;;;5024841;28;20208;-96
2022/11/25 12:32:30;;;;;;;18.07;4.60;;;18.00;82.40;;;;;;5031934;28;20192;-96
2022/11/25 12:35:05;;;;;;;12.40;3.63;;;18.10;79.00;;;;;;5032099;28;20201;-96
2022/11/25 12:37:47;;;;;;;17.00;3.77;;;18.10;80.20;;;;;;5032592;28;20208;-96
2022/11/25 12:40:26;;;;;;;15.67;4.27;;;18.10;75.90;;;;;;5027138;28;20217;-95
2022/11/25 12:43:09;;;;;;;17.43;4.63;;;18.20;77.80;;;;;;5033372;28;20216;-95
2022/11/25 13:58:59;;;;;;;10.47;2.60;;;18.20;70.30;;;;;;5041546;28;20305;-96
2022/11/25 14:08:27;;;;;;;10.03;3.27;;;17.90;70.00;;;;;;5044564;28;20230;-96
2022/11/25 14:11:52;;;;;;;14.27;3.50;;;17.80;70.90;;;;;;5041115;28;20209;-95
2022/11/25 14:18:11;;;;;;;9.77;2.60;;;17.60;70.80;;;;;;5058683;28;20232;-95
2022/11/25 14:20:57;;;;;;;16.93;3.80;;;17.50;70.20;;;;;;5044351;28;20199;-95
2022/11/25 14:24:04;;;;;;;16.13;3.33;;;17.40;69.70;;;;;;5047865;28;20274;-95
2022/11/25 14:26:44;;;;;;;15.07;4.33;;;17.40;70.00;;;;;;5063264;28;20217;-93
2022/11/25 14:29:21;;;;;;;16.40;3.43;;;17.20;70.70;;;;;;5057009;28;20228;-94
2022/11/25 14:31:57;;;;;;;10.97;3.17;;;17.10;70.50;;;;;;5059442;28;20227;-94
2022/11/25 14:34:45;;;;;;;10.43;3.03;;;17.10;71.10;;;;;;5055929;28;20204;-94
2022/11/25 14:37:40;;;;;;;12.23;3.67;;;17.00;70.40;;;;;;5031560;28;20656;-94
2022/11/25 14:40:16;;;;;;;13.83;3.93;;;16.90;70.70;;;;;;5022995;28;20222;-93
2022/11/25 14:42:48;;;;;;;11.50;3.37;;;16.90;70.80;;;;;;5040103;28;20211;-94
2022/11/25 14:45:28;;;;;;;16.17;3.90;;;16.80;70.80;;;;;;5035186;28;20212;-94
2022/11/25 14:47:58;;;;;;;13.90;3.93;;;16.70;70.50;;;;;;5036548;28;20225;-94
2022/11/25 14:51:17;;;;;;;23.13;5.97;;;16.70;70.70;;;;;;5040450;28;20689;-94
2022/11/25 14:53:51;;;;;;;12.73;3.47;;;16.60;70.70;;;;;;5029922;28;20216;-95
2022/11/25 14:56:31;;;;;;;9.60;2.47;;;16.60;71.10;;;;;;5041238;28;20668;-96
2022/11/25 14:59:05;;;;;;;9.90;2.97;;;16.50;70.40;;;;;;5031408;28;20272;-95
2022/11/25 15:01:40;;;;;;;10.70;2.90;;;16.50;71.60;;;;;;5039522;28;20596;-95
2022/11/25 15:17:38;;;;;;;10.70;2.60;;;16.20;71.60;;;;;;4980182;28;20710;-95
2022/11/25 15:23:24;;;;;;;9.17;3.17;;;16.10;71.90;;;;;;5056349;22;20235;-94
2022/11/25 15:25:59;;;;;;;14.27;2.57;;;16.10;72.50;;;;;;5018437;28;20332;-95
2022/11/25 15:39:38;;;;;;;11.40;3.20;;;15.80;72.40;;;;;;5035617;28;20236;-96
2022/11/25 15:42:14;;;;;;;14.83;3.53;;;15.80;71.70;;;;;;5035999;28;20221;-95
2022/11/25 15:45:00;;;;;;;14.40;3.63;;;15.70;72.10;;;;;;5036814;28;20203;-94
2022/11/25 15:47:34;;;;;;;10.53;2.70;;;15.70;71.60;;;;;;5032469;28;20278;-96
2022/11/25 15:53:35;;;;;;;9.50;2.77;;;15.60;72.00;;;;;;5029278;28;20299;-96
2022/11/25 16:02:58;;;;;;;16.00;4.57;;;15.40;72.40;;;;;;5030732;22;20327;-95
2022/11/25 16:05:48;;;;;;;15.63;3.70;;;15.30;72.70;;;;;;5020906;28;20202;-95
2022/11/25 16:11:47;;;;;;;12.37;4.03;;;15.20;74.30;;;;;;4940003;29;20213;-96
2022/11/25 16:14:26;;;;;;;12.97;3.63;;;15.20;73.40;;;;;;4948771;29;20309;-95
2022/11/25 17:29:23;;;;;;;60.20;18.77;;;13.80;75.10;;;;;;5266786;23;20308;-96
2022/11/25 18:46:41;;;;;;;14.83;5.47;;;12.70;77.00;;;;;;5001031;28;20241;-96
2022/11/25 18:49:28;;;;;;;18.13;6.50;;;12.70;77.10;;;;;;4999590;28;20283;-96
2022/11/25 18:55:10;;;;;;;23.20;8.53;;;12.60;77.00;;;;;;4980355;23;20257;-96
2022/11/25 18:58:16;;;;;;;19.37;7.10;;;12.60;77.00;;;;;;5005460;28;20225;-96
2022/11/25 19:00:48;;;;;;;31.13;11.47;;;12.50;77.10;;;;;;5078323;23;21512;-96
2022/11/25 19:08:56;;;;;;;19.80;8.03;;;12.40;77.10;;;;;;4997241;28;20237;-96
2022/11/25 19:11:41;;;;;;;16.17;7.57;;;12.40;77.20;;;;;;5036737;28;20225;-96
2022/11/25 19:14:17;;;;;;;16.47;7.40;;;12.30;77.40;;;;;;5030153;28;20263;-95
2022/11/25 19:17:23;;;;;;;19.90;8.93;;;12.30;77.40;;;;;;5026287;28;20215;-96
2022/11/25 19:20:06;;;;;;;19.53;8.07;;;12.30;77.60;;;;;;5030029;28;20579;-96
2022/11/25 19:22:41;;;;;;;15.53;6.80;;;12.20;77.40;;;;;;5021641;28;20220;-96
2022/11/25 19:28:43;;;;;;;19.63;8.63;;;12.20;78.20;;;;;;5033765;28;20283;-96
2022/11/25 19:31:17;;;;;;;19.83;8.33;;;12.10;78.20;;;;;;5026556;28;20216;-96
2022/11/25 19:40:39;;;;;;;18.67;7.73;;;12.10;78.40;;;;;;4942952;28;20215;-96
2022/11/25 19:43:09;;;;;;;12.90;6.43;;;12.00;78.40;;;;;;5010378;28;20262;-96
2022/11/25 19:45:47;;;;;;;20.07;7.37;;;12.00;78.40;;;;;;5027356;28;20321;-96
2022/11/25 19:52:11;;;;;;;25.50;8.53;;;11.90;79.10;;;;;;4986849;28;20260;-96
2022/11/25 20:01:19;;;;;;;20.73;7.37;;;11.90;79.30;;;;;;5049741;23;20782;-96